Terminal Aerodrome Forecast
Issued by NWS

Home | Current Version | Previous Version | Text Only | Print | Product List | Glossary On
Versions: 1 2 3 4 5 6 7 8 9 10 11 12 13 14 15 16 17 18
000
FTUS45 KRIW 261800 AAA
TAFJAC
TAF AMD
KJAC 261857Z 2619/2718 VRB06KT P6SM OVC005
     FM262030 VRB05KT P6SM FEW015 SCT030
     FM270200 36006KT P6SM FEW030
     FM271000 36005KT P6SM VCFG FEW003
      AMD LTD TO CLD VIS AND WIND=

USA.gov is the U.S. government's official web portal to all federal, state and local government web resources and services.